createdAt,value
2019-03-05T00:00:41.975Z,82.08
2019-03-05T00:03:11.015Z,81.75
2019-03-05T00:05:40.423Z,82.72
2019-03-05T00:08:10.193Z,82.39
2019-03-05T00:10:39.786Z,82.86
2019-03-05T00:13:09.166Z,82.68
2019-03-05T00:15:38.171Z,83.43
2019-03-05T00:18:07.234Z,83.64
2019-03-05T00:20:36.724Z,84.46
2019-03-05T00:23:08.243Z,84.90
2019-03-05T00:25:36.990Z,86.25
2019-03-05T00:28:16.607Z,85.98
2019-03-05T00:30:49.271Z,87.04
2019-03-05T00:34:01.546Z,87.89
2019-03-05T00:37:00.857Z,88.29
2019-03-05T00:40:00.990Z,88.16
2019-03-05T00:43:04.705Z,87.75
2019-03-05T00:45:59.903Z,86.40
2019-03-05T00:48:51.359Z,88.24
2019-03-05T00:51:33.216Z,89.70
2019-03-05T00:54:50.971Z,89.22
2019-03-05T00:57:48.291Z,88.52
2019-03-05T01:00:40.093Z,89.49
2019-03-05T01:03:50.339Z,89.02
2019-03-05T01:06:21.563Z,88.81
2019-03-05T01:08:50.945Z,88.12
2019-03-05T01:11:20.986Z,87.69
2019-03-05T01:13:50.140Z,87.68
2019-03-05T01:16:22.582Z,86.74
2019-03-05T01:18:51.577Z,86.54
2019-03-05T01:21:20.608Z,86.90
2019-03-05T01:23:50.019Z,86.54
2019-03-05T01:26:19.046Z,87.17
2019-03-05T01:28:48.036Z,85.94
2019-03-05T01:31:36.152Z,86.78
2019-03-05T01:34:17.341Z,86.58
2019-03-05T01:36:50.140Z,86.44
2019-03-05T01:39:43.097Z,86.43
2019-03-05T01:42:12.412Z,85.41
2019-03-05T01:44:41.416Z,85.48
2019-03-05T01:47:10.475Z,84.94
2019-03-05T01:49:39.508Z,84.91
2019-03-05T01:52:08.626Z,85.10
2019-03-05T01:54:37.983Z,84.75
2019-03-05T01:57:07.039Z,85.89
2019-03-05T01:59:36.119Z,86.47
2019-03-05T02:02:05.565Z,86.47
2019-03-05T02:04:34.605Z,86.53
2019-03-05T02:07:03.757Z,86.96
2019-03-05T02:09:32.953Z,86.42
2019-03-05T02:12:02.693Z,87.25
2019-03-05T02:14:32.004Z,87.06
2019-03-05T02:17:01.004Z,86.50
2019-03-05T02:19:42.614Z,87.40
2019-03-05T02:22:27.736Z,86.54
2019-03-05T02:25:29.271Z,87.33
2019-03-05T02:28:24.933Z,86.56
2019-03-05T02:31:08.860Z,85.73
2019-03-05T02:33:59.575Z,85.98
2019-03-05T02:36:57.604Z,85.33
2019-03-05T02:39:57.998Z,85.96
2019-03-05T02:43:20.299Z,86.27
2019-03-05T02:46:24.079Z,86.74
2019-03-05T02:49:45.758Z,87.38
2019-03-05T02:52:23.189Z,87.18
2019-03-05T02:55:25.554Z,87.00
2019-03-05T02:57:53.091Z,86.23
2019-03-05T03:00:34.213Z,86.38
2019-03-05T03:03:10.039Z,86.94
2019-03-05T03:05:54.321Z,86.32
2019-03-05T03:08:23.369Z,87.37
2019-03-05T03:10:52.698Z,88.43
2019-03-05T03:13:22.074Z,87.75
2019-03-05T03:15:51.121Z,86.42
2019-03-05T03:18:20.132Z,88.02
2019-03-05T03:20:49.314Z,87.10
2019-03-05T03:23:18.373Z,86.66
2019-03-05T03:25:47.378Z,86.88
2019-03-05T03:28:16.408Z,87.55
2019-03-05T03:30:45.423Z,87.77
2019-03-05T03:33:14.939Z,87.23
2019-03-05T03:35:44.347Z,87.35
2019-03-05T03:38:13.708Z,87.57
2019-03-05T03:40:42.809Z,88.28
2019-03-05T03:43:12.280Z,88.71
2019-03-05T03:45:41.601Z,88.96
2019-03-05T03:48:10.972Z,88.83
2019-03-05T03:50:40.101Z,88.92
2019-03-05T03:53:09.150Z,89.69
2019-03-05T03:55:38.274Z,89.65
2019-03-05T03:58:07.365Z,88.92
2019-03-05T04:00:36.388Z,88.71
2019-03-05T04:03:05.821Z,89.33
2019-03-05T04:05:34.823Z,89.18
2019-03-05T04:08:03.969Z,88.93
2019-03-05T04:10:33.447Z,90.15
2019-03-05T04:13:02.509Z,89.17
2019-03-05T04:15:31.531Z,88.94
2019-03-05T04:18:00.930Z,88.54
2019-03-05T04:20:33.601Z,89.58
2019-03-05T04:23:03.088Z,89.20
2019-03-05T04:25:32.535Z,88.81
2019-03-05T04:28:01.592Z,89.26
2019-03-05T04:30:30.614Z,88.81
2019-03-05T04:32:59.676Z,88.69
2019-03-05T04:35:28.698Z,89.28
2019-03-05T04:37:58.037Z,89.36
2019-03-05T04:40:27.413Z,88.88
2019-03-05T04:42:56.565Z,88.75
2019-03-05T04:45:35.990Z,89.18
2019-03-05T04:48:05.124Z,89.37
2019-03-05T04:51:08.241Z,88.73
2019-03-05T04:53:37.632Z,89.35
2019-03-05T04:56:06.685Z,89.19
2019-03-05T04:58:35.757Z,89.26
2019-03-05T05:01:05.017Z,89.04
2019-03-05T05:03:34.032Z,88.80
2019-03-05T05:06:03.080Z,88.17
2019-03-05T05:08:32.174Z,88.04
2019-03-05T05:11:01.542Z,88.92
2019-03-05T05:13:30.926Z,88.92
2019-03-05T05:16:00.218Z,89.37
2019-03-05T05:18:29.678Z,88.90
2019-03-05T05:20:58.715Z,88.79
2019-03-05T05:23:28.090Z,88.61
2019-03-05T05:25:57.116Z,88.46
2019-03-05T05:28:26.370Z,88.96
2019-03-05T05:30:55.427Z,89.25
2019-03-05T05:33:24.522Z,89.19
2019-03-05T05:35:53.562Z,88.58
2019-03-05T05:38:22.652Z,88.56
2019-03-05T05:40:51.710Z,89.46
2019-03-05T05:43:24.074Z,89.76
2019-03-05T05:45:53.338Z,89.49
2019-03-05T05:48:22.363Z,90.77
2019-03-05T05:50:51.417Z,89.37
2019-03-05T05:53:20.447Z,90.31
2019-03-05T05:55:49.916Z,89.53
2019-03-05T05:58:18.990Z,89.75
2019-03-05T06:00:51.002Z,88.67
2019-03-05T06:03:20.259Z,88.50
2019-03-05T06:05:49.761Z,88.80
2019-03-05T06:08:19.262Z,88.10
2019-03-05T06:10:48.996Z,88.44
2019-03-05T06:13:18.330Z,88.77
2019-03-05T06:15:47.452Z,87.24
2019-03-05T06:18:16.869Z,87.79
2019-03-05T06:20:46.028Z,88.03
2019-03-05T06:23:15.194Z,88.37
2019-03-05T06:25:44.841Z,88.32
2019-03-05T06:28:14.652Z,87.97
2019-03-05T06:30:43.798Z,87.78
2019-03-05T06:33:13.370Z,88.92
2019-03-05T06:35:42.452Z,88.73
2019-03-05T06:38:12.465Z,88.49
2019-03-05T06:40:41.474Z,88.03
2019-03-05T06:43:10.878Z,87.83
2019-03-05T06:45:40.286Z,88.16
2019-03-05T06:48:09.330Z,88.04
2019-03-05T06:50:38.452Z,87.79
2019-03-05T06:53:07.506Z,87.98
2019-03-05T06:55:36.971Z,88.27
2019-03-05T06:58:06.767Z,87.87
2019-03-05T07:00:37.522Z,87.42
2019-03-05T07:03:07.277Z,88.26
2019-03-05T07:06:11.693Z,87.49
2019-03-05T07:08:43.962Z,87.92
2019-03-05T07:11:26.947Z,87.77
2019-03-05T07:13:56.295Z,88.56
2019-03-05T07:16:57.544Z,88.22
2019-03-05T07:19:42.815Z,88.35
2019-03-05T07:22:25.179Z,87.83
2019-03-05T07:24:54.283Z,88.05
2019-03-05T07:27:34.945Z,87.65
2019-03-05T07:30:23.901Z,87.28
2019-03-05T07:32:53.875Z,87.69
2019-03-05T07:35:25.559Z,87.40
2019-03-05T07:37:54.914Z,86.48
2019-03-05T07:40:24.273Z,86.66
2019-03-05T07:42:53.736Z,87.11
2019-03-05T07:45:23.094Z,86.77
2019-03-05T07:47:52.177Z,86.68
2019-03-05T07:50:21.267Z,87.83
2019-03-05T07:52:50.616Z,86.74
2019-03-05T07:55:19.641Z,87.92
2019-03-05T07:57:48.693Z,87.58
2019-03-05T08:00:21.863Z,87.26
2019-03-05T08:02:51.425Z,87.38
2019-03-05T08:05:20.610Z,86.71
2019-03-05T08:07:49.798Z,87.40
2019-03-05T08:10:32.777Z,87.80
2019-03-05T08:13:19.191Z,86.39
2019-03-05T08:16:18.700Z,86.62
2019-03-05T08:18:47.727Z,86.28
2019-03-05T08:21:16.910Z,86.89
2019-03-05T08:23:48.325Z,87.55
2019-03-05T08:26:16.850Z,87.40
2019-03-05T08:28:45.910Z,86.60
2019-03-05T08:31:14.970Z,86.23
2019-03-05T08:33:44.047Z,87.14
2019-03-05T08:36:13.106Z,87.68
2019-03-05T08:38:42.301Z,88.23
2019-03-05T08:41:11.688Z,88.00
2019-03-05T08:43:41.090Z,86.03
2019-03-05T08:46:10.184Z,85.06
2019-03-05T08:48:39.284Z,85.59
2019-03-05T08:51:08.527Z,83.60
2019-03-05T08:53:49.019Z,82.25
2019-03-05T08:56:08.677Z,80.22
2019-03-05T08:58:38.116Z,79.01
2019-03-05T09:01:07.804Z,78.41
2019-03-05T09:03:37.248Z,74.11
2019-03-05T09:06:06.321Z,72.61
2019-03-05T09:08:35.367Z,72.66
2019-03-05T09:11:05.715Z,75.32
2019-03-05T09:13:34.989Z,75.06
2019-03-05T09:16:04.228Z,77.15
2019-03-05T09:18:33.657Z,76.16
2019-03-05T09:21:03.163Z,72.60
2019-03-05T09:23:32.200Z,68.07
2019-03-05T09:26:01.604Z,65.31
2019-03-05T09:28:31.299Z,60.21
2019-03-05T09:31:00.368Z,57.83
2019-03-05T09:33:29.787Z,59.40
2019-03-05T09:35:58.837Z,56.87
2019-03-05T09:38:28.257Z,55.12
2019-03-05T09:40:57.901Z,53.62
2019-03-05T09:43:26.958Z,57.44
2019-03-05T09:45:56.463Z,56.08
2019-03-05T09:48:25.536Z,56.59
2019-03-05T09:50:54.626Z,58.10
2019-03-05T09:53:23.709Z,62.66
2019-03-05T09:55:52.766Z,61.91
2019-03-05T09:58:21.848Z,67.88
2019-03-05T10:00:50.923Z,69.17
2019-03-05T10:03:20.138Z,69.20
2019-03-05T10:05:49.497Z,66.91
2019-03-05T10:08:19.055Z,62.39
2019-03-05T10:10:48.138Z,60.73
2019-03-05T10:13:17.366Z,59.37
2019-03-05T10:15:46.816Z,61.56
2019-03-05T10:18:15.975Z,63.69
2019-03-05T10:20:45.303Z,67.11
2019-03-05T10:23:14.964Z,67.84
2019-03-05T10:25:44.025Z,68.39
2019-03-05T10:28:13.153Z,70.12
2019-03-05T10:30:43.839Z,68.22
2019-03-05T10:33:16.054Z,69.21
2019-03-05T10:35:45.338Z,68.96
2019-03-05T10:38:14.475Z,68.36
2019-03-05T10:40:44.379Z,69.04
2019-03-05T10:43:14.257Z,62.67
2019-03-05T10:45:45.215Z,62.67
2019-03-05T10:48:15.833Z,61.88
2019-03-05T10:50:45.263Z,64.41
2019-03-05T10:53:14.640Z,65.66
2019-03-05T10:55:43.825Z,59.91
2019-03-05T10:58:14.206Z,55.94
2019-03-05T11:00:44.449Z,55.81
2019-03-05T11:03:14.021Z,59.06
2019-03-05T11:05:43.253Z,59.25
2019-03-05T11:08:17.199Z,57.06
2019-03-05T11:10:46.540Z,58.17
2019-03-05T11:13:15.589Z,56.28
2019-03-05T11:15:46.118Z,53.52
2019-03-05T11:18:15.489Z,55.38
2019-03-05T11:20:44.582Z,57.10
2019-03-05T11:23:13.784Z,52.21
2019-03-05T11:25:43.432Z,52.06
2019-03-05T11:28:12.463Z,53.62
2019-03-05T11:30:41.892Z,52.31
2019-03-05T11:33:10.940Z,48.98
2019-03-05T11:35:40.355Z,46.67
2019-03-05T11:38:09.372Z,44.02
2019-03-05T11:40:38.575Z,45.38
2019-03-05T11:43:10.259Z,43.00
2019-03-05T11:45:40.106Z,44.04
2019-03-05T11:48:09.234Z,44.00
2019-03-05T11:50:38.369Z,47.62
2019-03-05T11:53:08.365Z,48.48
2019-03-05T11:55:37.416Z,49.29
2019-03-05T11:58:06.414Z,49.69
2019-03-05T12:00:41.329Z,51.24
2019-03-05T12:03:10.669Z,51.33
2019-03-05T12:05:40.027Z,52.32
2019-03-05T12:08:09.417Z,53.86
2019-03-05T12:10:38.780Z,53.60
2019-03-05T12:13:07.800Z,52.78
2019-03-05T12:15:37.143Z,54.92
2019-03-05T12:18:06.199Z,51.69
2019-03-05T12:20:35.292Z,50.04
2019-03-05T12:23:06.640Z,47.64
2019-03-05T12:25:36.128Z,51.46
2019-03-05T12:28:10.301Z,53.86
2019-03-05T12:30:37.819Z,49.99
2019-03-05T12:33:07.122Z,52.98
2019-03-05T12:35:36.457Z,52.23
2019-03-05T12:38:06.208Z,54.53
2019-03-05T12:40:35.732Z,55.40
2019-03-05T12:43:05.041Z,52.26
2019-03-05T12:45:35.390Z,50.39
2019-03-05T12:48:05.646Z,48.62
2019-03-05T12:50:35.223Z,49.17
2019-03-05T12:53:04.619Z,49.06
2019-03-05T12:55:33.725Z,47.29
2019-03-05T12:58:03.126Z,47.16
2019-03-05T13:00:32.429Z,46.87
2019-03-05T13:03:01.581Z,49.53
2019-03-05T13:05:30.945Z,51.49
2019-03-05T13:08:00.199Z,48.84
2019-03-05T13:10:35.246Z,50.73
2019-03-05T13:13:00.539Z,51.00
2019-03-05T13:15:30.619Z,49.23
2019-03-05T13:17:59.771Z,47.66
2019-03-05T13:20:28.943Z,51.27
2019-03-05T13:22:58.199Z,53.15
2019-03-05T13:25:28.711Z,55.07
2019-03-05T13:28:02.255Z,55.31
2019-03-05T13:30:29.271Z,55.99
2019-03-05T13:32:59.027Z,57.36
2019-03-05T13:35:30.316Z,58.59
2019-03-05T13:38:03.250Z,57.54
2019-03-05T13:40:34.136Z,55.59
2019-03-05T13:43:02.567Z,56.22
2019-03-05T13:45:31.705Z,54.19
2019-03-05T13:48:28.343Z,53.36
2019-03-05T13:51:32.813Z,53.86
2019-03-05T13:54:51.869Z,54.91
2019-03-05T13:58:01.535Z,55.82
2019-03-05T14:00:30.880Z,54.42
2019-03-05T14:03:20.738Z,55.41
2019-03-05T14:06:25.037Z,56.14
2019-03-05T14:09:21.491Z,56.71
2019-03-05T14:11:51.601Z,57.61
2019-03-05T14:14:28.185Z,57.38
2019-03-05T14:17:02.897Z,58.62
2019-03-05T14:19:31.960Z,58.80
2019-03-05T14:22:01.651Z,61.24
2019-03-05T14:24:30.655Z,59.76
2019-03-05T14:26:59.773Z,59.54
2019-03-05T14:29:29.434Z,59.22
2019-03-05T14:31:58.560Z,61.84
2019-03-05T14:34:27.645Z,61.84
2019-03-05T14:36:56.650Z,60.00
2019-03-05T14:39:29.118Z,58.71
2019-03-05T14:41:58.375Z,58.10
2019-03-05T14:44:39.103Z,57.37
2019-03-05T14:47:00.021Z,58.07
2019-03-05T14:49:29.390Z,56.69
2019-03-05T14:51:58.493Z,57.37
2019-03-05T14:54:27.660Z,57.89
2019-03-05T14:56:56.746Z,58.42
2019-03-05T14:59:25.789Z,59.58
2019-03-05T15:01:54.883Z,59.31
2019-03-05T15:04:24.364Z,60.14
2019-03-05T15:06:53.451Z,59.90
2019-03-05T15:09:22.782Z,60.27
2019-03-05T15:11:51.951Z,61.58
2019-03-05T15:14:20.957Z,60.77
2019-03-05T15:16:50.248Z,62.22
2019-03-05T15:19:21.682Z,62.34
2019-03-05T15:21:50.700Z,60.50
2019-03-05T15:24:19.854Z,60.14
2019-03-05T15:26:49.067Z,58.36
2019-03-05T15:29:19.596Z,59.30
2019-03-05T15:31:48.950Z,60.69
2019-03-05T15:34:19.385Z,59.10
2019-03-05T15:36:51.916Z,59.83
2019-03-05T15:39:19.174Z,60.36
2019-03-05T15:41:48.575Z,60.27
2019-03-05T15:44:17.896Z,60.33
2019-03-05T15:46:47.248Z,61.12
2019-03-05T15:49:16.476Z,62.45
2019-03-05T15:51:45.604Z,62.45
2019-03-05T15:54:14.645Z,64.19
2019-03-05T15:56:43.675Z,64.47
2019-03-05T15:59:13.371Z,64.47
2019-03-05T16:01:44.092Z,63.38
2019-03-05T16:04:13.123Z,65.00
2019-03-05T16:06:42.373Z,65.00
2019-03-05T16:09:19.789Z,65.08
2019-03-05T16:11:48.976Z,65.51
2019-03-05T16:14:18.313Z,65.62
2019-03-05T16:16:51.628Z,65.62
2019-03-05T16:19:18.475Z,65.97
2019-03-05T16:21:47.552Z,65.53
2019-03-05T16:24:18.178Z,64.54
2019-03-05T16:26:47.132Z,65.20
2019-03-05T16:29:20.151Z,65.55
2019-03-05T16:32:03.383Z,66.03
2019-03-05T16:34:38.186Z,64.71
2019-03-05T16:37:24.816Z,65.49
2019-03-05T16:40:19.581Z,65.80
2019-03-05T16:43:25.949Z,65.85
2019-03-05T16:46:19.580Z,66.54
2019-03-05T16:48:56.154Z,66.54
2019-03-05T16:51:33.425Z,66.59
2019-03-05T16:54:18.194Z,66.33
2019-03-05T16:57:12.550Z,66.26
2019-03-05T16:59:56.774Z,66.71
2019-03-05T17:02:45.226Z,66.42
2019-03-05T17:05:34.009Z,67.14
2019-03-05T17:08:34.387Z,66.90
2019-03-05T17:11:21.080Z,66.59
2019-03-05T17:13:50.608Z,68.34
2019-03-05T17:16:20.364Z,69.17
2019-03-05T17:18:49.816Z,69.44
2019-03-05T17:21:27.007Z,69.22
2019-03-05T17:23:49.651Z,69.25
2019-03-05T17:26:18.718Z,69.75
2019-03-05T17:28:48.149Z,70.54
2019-03-05T17:31:17.229Z,70.10
2019-03-05T17:33:46.772Z,70.47
2019-03-05T17:36:16.294Z,70.87
2019-03-05T17:38:45.456Z,70.83
2019-03-05T17:41:14.691Z,70.61
2019-03-05T17:43:43.896Z,70.29
2019-03-05T17:46:13.300Z,71.07
2019-03-05T17:48:42.918Z,71.13
2019-03-05T17:51:12.503Z,71.75
2019-03-05T17:53:41.711Z,71.19
2019-03-05T17:56:11.488Z,71.79
2019-03-05T17:58:40.662Z,72.19
2019-03-05T18:01:10.517Z,71.68
2019-03-05T18:03:39.855Z,72.49
2019-03-05T18:06:09.046Z,72.73
2019-03-05T18:08:38.323Z,72.32
2019-03-05T18:11:07.969Z,72.49
2019-03-05T18:13:38.826Z,72.35
2019-03-05T18:16:07.913Z,72.09
2019-03-05T18:18:36.953Z,72.12
2019-03-05T18:21:07.729Z,72.42
2019-03-05T18:23:36.908Z,72.90
2019-03-05T18:26:06.188Z,73.48
2019-03-05T18:28:35.322Z,73.60
2019-03-05T18:31:04.488Z,73.74
2019-03-05T18:33:33.913Z,73.79
2019-03-05T18:36:03.063Z,75.06
2019-03-05T18:38:33.032Z,74.54
2019-03-05T18:41:02.537Z,74.64
2019-03-05T18:43:31.633Z,75.76
2019-03-05T18:46:00.747Z,76.74
2019-03-05T18:48:29.838Z,76.61
2019-03-05T18:51:00.607Z,77.21
2019-03-05T18:53:30.050Z,76.58
2019-03-05T18:55:59.632Z,77.54
2019-03-05T18:58:28.659Z,77.64
2019-03-05T19:00:57.676Z,77.57
2019-03-05T19:03:26.930Z,77.70
2019-03-05T19:05:56.460Z,78.01
2019-03-05T19:08:25.740Z,77.75
2019-03-05T19:10:55.294Z,78.55
2019-03-05T19:13:24.361Z,76.96
2019-03-05T19:15:53.416Z,77.94
2019-03-05T19:18:22.638Z,77.89
2019-03-05T19:20:51.784Z,77.87
2019-03-05T19:23:20.873Z,78.27
2019-03-05T19:25:50.365Z,78.35
2019-03-05T19:28:19.430Z,77.95
2019-03-05T19:30:48.896Z,77.71
2019-03-05T19:33:18.448Z,78.55
2019-03-05T19:35:48.252Z,78.14
2019-03-05T19:38:17.574Z,78.75
2019-03-05T19:40:46.981Z,79.30
2019-03-05T19:43:16.340Z,78.86
2019-03-05T19:45:45.401Z,79.82
2019-03-05T19:48:14.525Z,78.91
2019-03-05T19:50:44.414Z,79.60
2019-03-05T19:53:13.920Z,80.19
2019-03-05T19:55:43.236Z,79.74
2019-03-05T19:58:13.177Z,80.60
2019-03-05T20:01:00.338Z,80.20
2019-03-05T20:03:29.398Z,80.85
2019-03-05T20:05:58.461Z,80.68
2019-03-05T20:08:28.192Z,80.35
2019-03-05T20:10:58.253Z,81.00
2019-03-05T20:13:27.350Z,81.41
2019-03-05T20:15:56.498Z,80.93
2019-03-05T20:18:25.567Z,80.99
2019-03-05T20:20:54.644Z,81.10
2019-03-05T20:23:26.048Z,82.32
2019-03-05T20:25:55.646Z,82.67
2019-03-05T20:28:24.722Z,82.65
2019-03-05T20:30:53.808Z,83.26
2019-03-05T20:33:22.933Z,84.22
2019-03-05T20:35:52.261Z,82.93
2019-03-05T20:38:21.882Z,83.95
2019-03-05T20:40:51.006Z,85.05
2019-03-05T20:43:20.046Z,85.28
2019-03-05T20:45:49.985Z,85.82
2019-03-05T20:48:19.465Z,86.98
2019-03-05T20:50:48.590Z,86.82
2019-03-05T20:53:18.283Z,86.58
2019-03-05T20:55:47.501Z,87.86
2019-03-05T20:58:16.648Z,88.87
2019-03-05T21:00:45.993Z,89.17
2019-03-05T21:03:15.372Z,88.50
2019-03-05T21:05:44.619Z,90.14
2019-03-05T21:08:13.797Z,89.54
2019-03-05T21:10:43.322Z,90.50
2019-03-05T21:13:12.521Z,90.60
2019-03-05T21:15:42.138Z,91.29
2019-03-05T21:18:11.231Z,90.98
2019-03-05T21:20:40.655Z,91.40
2019-03-05T21:23:10.020Z,91.55
2019-03-05T21:25:39.153Z,91.53
2019-03-05T21:28:08.341Z,91.57
2019-03-05T21:30:37.798Z,91.48
2019-03-05T21:33:06.834Z,91.21
2019-03-05T21:35:36.255Z,91.26
2019-03-05T21:38:05.574Z,90.74
2019-03-05T21:40:35.211Z,90.81
2019-03-05T21:43:04.302Z,90.00
2019-03-05T21:45:35.253Z,89.92
2019-03-05T21:48:04.796Z,89.25
2019-03-05T21:50:34.065Z,89.24
2019-03-05T21:53:03.521Z,89.71
2019-03-05T21:55:33.020Z,90.19
2019-03-05T21:58:02.570Z,90.24
2019-03-05T22:00:32.728Z,90.25
2019-03-05T22:03:02.509Z,89.91
2019-03-05T22:05:32.121Z,89.57
2019-03-05T22:08:01.739Z,89.50
2019-03-05T22:10:31.098Z,89.36
2019-03-05T22:13:00.248Z,89.47
2019-03-05T22:15:29.699Z,89.12
2019-03-05T22:17:58.953Z,88.74
2019-03-05T22:20:28.147Z,88.22
2019-03-05T22:22:57.567Z,88.68
2019-03-05T22:25:28.866Z,87.86
2019-03-05T22:27:57.918Z,88.07
2019-03-05T22:30:27.863Z,87.37
2019-03-05T22:32:56.912Z,86.99
2019-03-05T22:35:26.169Z,87.47
2019-03-05T22:37:55.334Z,87.67
2019-03-05T22:40:24.675Z,87.19
2019-03-05T22:42:54.373Z,86.39
2019-03-05T22:45:24.505Z,86.80
2019-03-05T22:47:53.739Z,87.70
2019-03-05T22:50:22.903Z,87.65
2019-03-05T22:52:52.062Z,86.69
2019-03-05T22:55:21.157Z,87.10
2019-03-05T22:57:50.358Z,86.65
2019-03-05T23:00:45.011Z,87.17
2019-03-05T23:03:14.429Z,86.86
2019-03-05T23:05:43.506Z,86.87
2019-03-05T23:08:12.578Z,86.86
2019-03-05T23:10:41.645Z,85.93
2019-03-05T23:13:10.697Z,86.29
2019-03-05T23:15:40.478Z,86.19
2019-03-05T23:18:09.883Z,85.10
2019-03-05T23:20:39.311Z,86.13
2019-03-05T23:23:08.362Z,86.02
2019-03-05T23:25:37.409Z,85.29
2019-03-05T23:28:07.615Z,85.94
2019-03-05T23:30:36.829Z,85.97
2019-03-05T23:33:06.339Z,85.64
2019-03-05T23:35:35.705Z,85.53
2019-03-05T23:38:05.272Z,85.89
2019-03-05T23:40:34.425Z,85.72
2019-03-05T23:43:03.855Z,85.73
2019-03-05T23:45:32.859Z,85.13
2019-03-05T23:48:02.011Z,85.16
2019-03-05T23:50:31.413Z,85.42
2019-03-05T23:53:00.860Z,85.31
2019-03-05T23:55:30.653Z,84.82
2019-03-05T23:57:59.767Z,85.28
